Etusivu
METAR-TAF:

METAR-TAF

Lentoasemat :

Decatur, Illinois, Yhdysvallat

Leveyspiiri: 39-50-04N, Pituuspiiri: 088-51-56W, korkeus merenpinnasta: 208 m

Tämänhetkinen sää

Tämä raportti tehtiin 9 minuuttia sitten, kello 16.54 UTC
Tuuli 12 kn lounaasta
Lämpötila 5°C
Kosteus 41%
Ilmanpaine 1027 hPa
Näkyvyys: 16.1 km
selkeää

METAR: KDEC 221654Z 22012KT 10SM CLR 05/M07 A3033 RMK AO2 SLP277 T00501067

Aika: 11:03 (17:03 UTC)

Sääennuste

Tämä raportti tehtiin 5 tuntia ja 42 minuuttia sitten, kello 11.21 UTC
Ennuste voimassa 22. päivästä klo 12 UTC - 23. päivään klo 12 UTC
Tuuli 8 kn etelästä/lounaasta
Näkyvyys: 10 km
selkeää
From 22. päivästä klo 1800 UTC
Tuuli 12 kn etelästä/lounaasta puuskistuen 18 kn:hen
Näkyvyys: 10 km
selkeää
From 23. päivästä klo 0100 UTC
Tuuli 9 kn etelästä/lounaasta
Näkyvyys: 10 km
Muutamia pilviä 25000 ft:n korkeudessa

TAF: KDEC 221121Z 2212/2312 21008KT P6SM SKC FM221800 20012G18KT P6SM SKC FM230100 20009KT P6SM FEW250

Säähavainnot ja -ennusteet yli 4000 lentoasemalta (METAR- ja TAF-raportit).

Käytössä olevat sääasemat on merkitty karttaan keltaisilla ja punaisilla pisteillä.

Aseta hiiri pisteen päälle nähdäksesi sääaseman nimen.

Klikkaa sitten nähdäksesi säähavainnot ja -ennusteet.

Kartan vaihtaminen: klikkaa mustalla rastilla varustettuja vihreitä pisteitä, niin voit zoomata sisään; viivalla varustettua vihreää pistettä, niin voit zoomata ulos tai vihreitä nuolia, niin pääset viereisille kartoille.


METAR-TAF: